sensor_id;sensor_type;location;lat;lon;timestamp;P1;durP1;ratioP1;P2;durP2;ratioP2
73382;SDS011;61600;48.126;11.542;2023-03-17T00:00:17;6.30;;;3.50;;
73382;SDS011;61600;48.126;11.542;2023-03-17T00:02:44;7.03;;;3.67;;
73382;SDS011;61600;48.126;11.542;2023-03-17T00:05:19;8.02;;;3.35;;
73382;SDS011;61600;48.126;11.542;2023-03-17T00:07:48;11.43;;;3.15;;
73382;SDS011;61600;48.126;11.542;2023-03-17T00:10:19;6.60;;;3.20;;
73382;SDS011;61600;48.126;11.542;2023-03-17T00:12:50;7.53;;;3.50;;
73382;SDS011;61600;48.126;11.542;2023-03-17T00:15:21;8.85;;;3.65;;
73382;SDS011;61600;48.126;11.542;2023-03-17T00:17:48;6.43;;;3.42;;
73382;SDS011;61600;48.126;11.542;2023-03-17T00:20:32;9.90;;;3.78;;
73382;SDS011;61600;48.126;11.542;2023-03-17T00:22:58;8.65;;;3.88;;
73382;SDS011;61600;48.126;11.542;2023-03-17T00:25:28;7.32;;;3.67;;
73382;SDS011;61600;48.126;11.542;2023-03-17T00:27:57;8.50;;;3.70;;
73382;SDS011;61600;48.126;11.542;2023-03-17T00:30:24;9.05;;;3.58;;
73382;SDS011;61600;48.126;11.542;2023-03-17T00:32:52;7.43;;;3.67;;
73382;SDS011;61600;48.126;11.542;2023-03-17T00:35:21;7.57;;;3.63;;
73382;SDS011;61600;48.126;11.542;2023-03-17T00:37:49;7.65;;;3.75;;
73382;SDS011;61600;48.126;11.542;2023-03-17T00:42:48;7.03;;;3.90;;
73382;SDS011;61600;48.126;11.542;2023-03-17T00:45:14;8.30;;;3.63;;
73382;SDS011;61600;48.126;11.542;2023-03-17T00:47:41;9.25;;;3.75;;
73382;SDS011;61600;48.126;11.542;2023-03-17T00:50:09;8.85;;;3.70;;
73382;SDS011;61600;48.126;11.542;2023-03-17T00:52:43;11.80;;;3.70;;
73382;SDS011;61600;48.126;11.542;2023-03-17T00:55:11;9.07;;;3.22;;
73382;SDS011;61600;48.126;11.542;2023-03-17T00:57:37;6.20;;;2.97;;
73382;SDS011;61600;48.126;11.542;2023-03-17T01:00:05;9.68;;;4.30;;
73382;SDS011;61600;48.126;11.542;2023-03-17T01:02:41;7.22;;;3.45;;
73382;SDS011;61600;48.126;11.542;2023-03-17T01:05:11;9.18;;;4.00;;
73382;SDS011;61600;48.126;11.542;2023-03-17T01:07:37;7.13;;;3.80;;
73382;SDS011;61600;48.126;11.542;2023-03-17T01:10:16;4.88;;;3.08;;
73382;SDS011;61600;48.126;11.542;2023-03-17T01:12:53;6.47;;;3.50;;
73382;SDS011;61600;48.126;11.542;2023-03-17T01:15:20;8.10;;;3.47;;
73382;SDS011;61600;48.126;11.542;2023-03-17T01:17:47;6.47;;;3.40;;
73382;SDS011;61600;48.126;11.542;2023-03-17T01:20:16;7.30;;;3.25;;
73382;SDS011;61600;48.126;11.542;2023-03-17T01:22:46;5.28;;;3.22;;
73382;SDS011;61600;48.126;11.542;2023-03-17T01:25:12;5.03;;;3.15;;
73382;SDS011;61600;48.126;11.542;2023-03-17T01:27:38;5.30;;;2.88;;
73382;SDS011;61600;48.126;11.542;2023-03-17T01:30:05;7.47;;;3.92;;
73382;SDS011;61600;48.126;11.542;2023-03-17T01:32:51;6.13;;;3.15;;
73382;SDS011;61600;48.126;11.542;2023-03-17T01:35:21;9.75;;;3.40;;
73382;SDS011;61600;48.126;11.542;2023-03-17T01:37:47;7.35;;;3.38;;
73382;SDS011;61600;48.126;11.542;2023-03-17T01:40:17;11.88;;;3.67;;
73382;SDS011;61600;48.126;11.542;2023-03-17T01:42:50;6.72;;;3.60;;
73382;SDS011;61600;48.126;11.542;2023-03-17T01:48:23;7.13;;;3.25;;
73382;SDS011;61600;48.126;11.542;2023-03-17T01:50:50;12.10;;;3.42;;
73382;SDS011;61600;48.126;11.542;2023-03-17T01:53:17;9.95;;;3.53;;
73382;SDS011;61600;48.126;11.542;2023-03-17T01:55:45;6.47;;;3.17;;
73382;SDS011;61600;48.126;11.542;2023-03-17T01:58:14;6.57;;;3.35;;
73382;SDS011;61600;48.126;11.542;2023-03-17T02:00:41;7.15;;;3.60;;
73382;SDS011;61600;48.126;11.542;2023-03-17T02:03:08;7.38;;;3.60;;
73382;SDS011;61600;48.126;11.542;2023-03-17T02:05:34;9.45;;;3.95;;
73382;SDS011;61600;48.126;11.542;2023-03-17T02:08:01;7.30;;;3.33;;
73382;SDS011;61600;48.126;11.542;2023-03-17T02:10:27;8.68;;;3.70;;
73382;SDS011;61600;48.126;11.542;2023-03-17T02:12:55;6.38;;;3.20;;
73382;SDS011;61600;48.126;11.542;2023-03-17T02:15:34;9.77;;;3.72;;
73382;SDS011;61600;48.126;11.542;2023-03-17T02:18:13;10.35;;;4.07;;
73382;SDS011;61600;48.126;11.542;2023-03-17T02:23:17;6.47;;;3.40;;
73382;SDS011;61600;48.126;11.542;2023-03-17T02:25:49;7.45;;;3.63;;
73382;SDS011;61600;48.126;11.542;2023-03-17T02:28:21;8.52;;;3.65;;
73382;SDS011;61600;48.126;11.542;2023-03-17T02:30:50;7.20;;;3.60;;
73382;SDS011;61600;48.126;11.542;2023-03-17T02:33:17;6.85;;;3.67;;
73382;SDS011;61600;48.126;11.542;2023-03-17T02:35:43;8.98;;;3.63;;
73382;SDS011;61600;48.126;11.542;2023-03-17T02:38:09;7.03;;;3.55;;
73382;SDS011;61600;48.126;11.542;2023-03-17T02:40:35;7.13;;;3.47;;
73382;SDS011;61600;48.126;11.542;2023-03-17T02:43:01;6.63;;;4.03;;
73382;SDS011;61600;48.126;11.542;2023-03-17T02:45:27;6.07;;;3.40;;
73382;SDS011;61600;48.126;11.542;2023-03-17T02:47:52;6.07;;;3.05;;
73382;SDS011;61600;48.126;11.542;2023-03-17T02:50:21;7.07;;;3.40;;
73382;SDS011;61600;48.126;11.542;2023-03-17T02:52:50;6.25;;;3.55;;
73382;SDS011;61600;48.126;11.542;2023-03-17T02:55:16;7.57;;;4.00;;
73382;SDS011;61600;48.126;11.542;2023-03-17T02:57:42;8.15;;;4.07;;
73382;SDS011;61600;48.126;11.542;2023-03-17T03:00:09;8.98;;;3.83;;
73382;SDS011;61600;48.126;11.542;2023-03-17T03:02:39;8.18;;;3.80;;
73382;SDS011;61600;48.126;11.542;2023-03-17T03:05:06;6.65;;;3.80;;
73382;SDS011;61600;48.126;11.542;2023-03-17T03:09:58;6.57;;;3.70;;
73382;SDS011;61600;48.126;11.542;2023-03-17T03:12:24;7.97;;;4.18;;
73382;SDS011;61600;48.126;11.542;2023-03-17T03:14:50;6.65;;;3.47;;
73382;SDS011;61600;48.126;11.542;2023-03-17T03:17:16;7.90;;;3.45;;
73382;SDS011;61600;48.126;11.542;2023-03-17T03:19:42;6.80;;;3.58;;
73382;SDS011;61600;48.126;11.542;2023-03-17T03:22:08;6.80;;;3.55;;
73382;SDS011;61600;48.126;11.542;2023-03-17T03:24:34;6.20;;;3.28;;
73382;SDS011;61600;48.126;11.542;2023-03-17T03:27:00;8.55;;;3.35;;
73382;SDS011;61600;48.126;11.542;2023-03-17T03:29:25;15.57;;;4.32;;
73382;SDS011;61600;48.126;11.542;2023-03-17T03:31:51;6.40;;;3.50;;
73382;SDS011;61600;48.126;11.542;2023-03-17T03:34:17;8.80;;;4.30;;
73382;SDS011;61600;48.126;11.542;2023-03-17T03:36:43;6.65;;;3.55;;
73382;SDS011;61600;48.126;11.542;2023-03-17T03:39:09;6.00;;;3.50;;
73382;SDS011;61600;48.126;11.542;2023-03-17T03:41:35;10.43;;;4.10;;
73382;SDS011;61600;48.126;11.542;2023-03-17T03:44:00;6.50;;;3.95;;
73382;SDS011;61600;48.126;11.542;2023-03-17T03:46:26;7.25;;;3.92;;
73382;SDS011;61600;48.126;11.542;2023-03-17T03:48:52;6.90;;;3.38;;
73382;SDS011;61600;48.126;11.542;2023-03-17T03:51:19;6.70;;;3.67;;
73382;SDS011;61600;48.126;11.542;2023-03-17T03:53:45;6.88;;;3.70;;
73382;SDS011;61600;48.126;11.542;2023-03-17T03:56:12;7.07;;;3.65;;
73382;SDS011;61600;48.126;11.542;2023-03-17T03:58:38;9.68;;;4.13;;
73382;SDS011;61600;48.126;11.542;2023-03-17T04:01:04;8.05;;;3.78;;
73382;SDS011;61600;48.126;11.542;2023-03-17T04:03:31;6.90;;;3.80;;
73382;SDS011;61600;48.126;11.542;2023-03-17T04:05:57;7.07;;;3.75;;
73382;SDS011;61600;48.126;11.542;2023-03-17T04:08:23;6.70;;;3.38;;
73382;SDS011;61600;48.126;11.542;2023-03-17T04:10:49;9.13;;;3.55;;
73382;SDS011;61600;48.126;11.542;2023-03-17T04:13:15;7.13;;;3.45;;
73382;SDS011;61600;48.126;11.542;2023-03-17T04:15:41;6.65;;;3.55;;
73382;SDS011;61600;48.126;11.542;2023-03-17T04:18:06;8.13;;;3.97;;
73382;SDS011;61600;48.126;11.542;2023-03-17T04:20:32;9.27;;;3.70;;
73382;SDS011;61600;48.126;11.542;2023-03-17T04:22:58;7.35;;;3.67;;
73382;SDS011;61600;48.126;11.542;2023-03-17T04:25:24;11.32;;;3.63;;
73382;SDS011;61600;48.126;11.542;2023-03-17T04:27:50;7.85;;;3.80;;
73382;SDS011;61600;48.126;11.542;2023-03-17T04:30:16;10.68;;;3.50;;
73382;SDS011;61600;48.126;11.542;2023-03-17T04:32:42;7.93;;;3.60;;
73382;SDS011;61600;48.126;11.542;2023-03-17T04:35:16;6.88;;;3.85;;
73382;SDS011;61600;48.126;11.542;2023-03-17T04:37:43;9.38;;;3.65;;
73382;SDS011;61600;48.126;11.542;2023-03-17T04:40:10;8.15;;;3.53;;
73382;SDS011;61600;48.126;11.542;2023-03-17T04:42:37;7.18;;;3.72;;
73382;SDS011;61600;48.126;11.542;2023-03-17T04:45:03;10.25;;;4.20;;
73382;SDS011;61600;48.126;11.542;2023-03-17T04:47:30;7.07;;;3.33;;
73382;SDS011;61600;48.126;11.542;2023-03-17T04:49:56;8.05;;;3.97;;
73382;SDS011;61600;48.126;11.542;2023-03-17T04:52:22;7.22;;;3.42;;
73382;SDS011;61600;48.126;11.542;2023-03-17T04:54:48;8.07;;;3.80;;
73382;SDS011;61600;48.126;11.542;2023-03-17T04:57:14;7.28;;;3.80;;
73382;SDS011;61600;48.126;11.542;2023-03-17T04:59:39;12.18;;;3.83;;
73382;SDS011;61600;48.126;11.542;2023-03-17T05:02:05;7.45;;;4.00;;
73382;SDS011;61600;48.126;11.542;2023-03-17T05:04:32;12.88;;;4.30;;
73382;SDS011;61600;48.126;11.542;2023-03-17T05:06:58;6.85;;;4.05;;
73382;SDS011;61600;48.126;11.542;2023-03-17T05:09:24;10.32;;;3.75;;
73382;SDS011;61600;48.126;11.542;2023-03-17T05:11:53;9.90;;;3.65;;
73382;SDS011;61600;48.126;11.542;2023-03-17T05:14:19;7.50;;;3.55;;
73382;SDS011;61600;48.126;11.542;2023-03-17T05:16:45;6.32;;;3.17;;
73382;SDS011;61600;48.126;11.542;2023-03-17T05:19:12;7.50;;;3.20;;
73382;SDS011;61600;48.126;11.542;2023-03-17T05:21:38;7.97;;;3.55;;
73382;SDS011;61600;48.126;11.542;2023-03-17T05:24:04;7.75;;;3.40;;
73382;SDS011;61600;48.126;11.542;2023-03-17T05:26:30;8.65;;;3.75;;
73382;SDS011;61600;48.126;11.542;2023-03-17T05:28:56;4.43;;;2.83;;
73382;SDS011;61600;48.126;11.542;2023-03-17T05:31:22;6.32;;;3.13;;
73382;SDS011;61600;48.126;11.542;2023-03-17T05:33:48;7.47;;;3.40;;
73382;SDS011;61600;48.126;11.542;2023-03-17T05:36:15;7.15;;;3.67;;
73382;SDS011;61600;48.126;11.542;2023-03-17T05:38:42;8.98;;;3.30;;
73382;SDS011;61600;48.126;11.542;2023-03-17T05:41:08;8.05;;;3.15;;
73382;SDS011;61600;48.126;11.542;2023-03-17T05:43:35;6.13;;;3.35;;
73382;SDS011;61600;48.126;11.542;2023-03-17T05:46:02;5.18;;;2.75;;
73382;SDS011;61600;48.126;11.542;2023-03-17T05:48:28;7.53;;;3.60;;
73382;SDS011;61600;48.126;11.542;2023-03-17T05:50:54;7.80;;;3.63;;
73382;SDS011;61600;48.126;11.542;2023-03-17T05:53:20;6.50;;;3.03;;
73382;SDS011;61600;48.126;11.542;2023-03-17T05:55:46;5.07;;;2.38;;
73382;SDS011;61600;48.126;11.542;2023-03-17T05:58:12;10.88;;;4.30;;
73382;SDS011;61600;48.126;11.542;2023-03-17T06:03:06;7.05;;;3.17;;
73382;SDS011;61600;48.126;11.542;2023-03-17T06:05:32;8.00;;;3.50;;
73382;SDS011;61600;48.126;11.542;2023-03-17T06:07:59;6.43;;;2.97;;
73382;SDS011;61600;48.126;11.542;2023-03-17T06:10:25;6.60;;;3.25;;
73382;SDS011;61600;48.126;11.542;2023-03-17T06:12:51;8.70;;;3.58;;
73382;SDS011;61600;48.126;11.542;2023-03-17T06:15:17;5.55;;;3.10;;
73382;SDS011;61600;48.126;11.542;2023-03-17T06:17:44;9.95;;;3.90;;
73382;SDS011;61600;48.126;11.542;2023-03-17T06:20:10;7.13;;;3.47;;
73382;SDS011;61600;48.126;11.542;2023-03-17T06:22:37;7.07;;;3.33;;
73382;SDS011;61600;48.126;11.542;2023-03-17T06:25:03;13.45;;;3.03;;
73382;SDS011;61600;48.126;11.542;2023-03-17T06:27:30;7.07;;;3.40;;
73382;SDS011;61600;48.126;11.542;2023-03-17T06:32:25;6.60;;;2.97;;
73382;SDS011;61600;48.126;11.542;2023-03-17T06:34:52;6.10;;;3.05;;
73382;SDS011;61600;48.126;11.542;2023-03-17T06:37:18;8.60;;;3.10;;
73382;SDS011;61600;48.126;11.542;2023-03-17T06:39:44;5.85;;;3.10;;
73382;SDS011;61600;48.126;11.542;2023-03-17T06:42:10;5.90;;;2.83;;
73382;SDS011;61600;48.126;11.542;2023-03-17T06:44:36;6.32;;;3.53;;
73382;SDS011;61600;48.126;11.542;2023-03-17T06:47:02;9.57;;;3.40;;
73382;SDS011;61600;48.126;11.542;2023-03-17T06:49:29;11.68;;;3.30;;
73382;SDS011;61600;48.126;11.542;2023-03-17T06:51:55;7.80;;;3.17;;
73382;SDS011;61600;48.126;11.542;2023-03-17T06:54:21;7.57;;;3.50;;
73382;SDS011;61600;48.126;11.542;2023-03-17T06:56:50;6.82;;;3.15;;
73382;SDS011;61600;48.126;11.542;2023-03-17T06:59:17;9.23;;;3.90;;
73382;SDS011;61600;48.126;11.542;2023-03-17T07:01:44;14.57;;;3.45;;
73382;SDS011;61600;48.126;11.542;2023-03-17T07:04:11;5.50;;;2.63;;
73382;SDS011;61600;48.126;11.542;2023-03-17T07:06:36;10.77;;;3.40;;
73382;SDS011;61600;48.126;11.542;2023-03-17T07:09:03;7.75;;;3.17;;
73382;SDS011;61600;48.126;11.542;2023-03-17T07:11:30;5.93;;;3.15;;
73382;SDS011;61600;48.126;11.542;2023-03-17T07:13:57;8.55;;;3.58;;
73382;SDS011;61600;48.126;11.542;2023-03-17T07:16:22;7.40;;;3.05;;
73382;SDS011;61600;48.126;11.542;2023-03-17T07:18:49;6.82;;;3.10;;
73382;SDS011;61600;48.126;11.542;2023-03-17T07:21:15;6.13;;;3.28;;
73382;SDS011;61600;48.126;11.542;2023-03-17T07:23:41;35.08;;;6.90;;
73382;SDS011;61600;48.126;11.542;2023-03-17T07:26:07;11.35;;;3.30;;
73382;SDS011;61600;48.126;11.542;2023-03-17T07:28:34;8.48;;;3.72;;
73382;SDS011;61600;48.126;11.542;2023-03-17T07:31:00;9.23;;;3.58;;
73382;SDS011;61600;48.126;11.542;2023-03-17T07:33:29;6.45;;;3.20;;
73382;SDS011;61600;48.126;11.542;2023-03-17T07:35:55;9.43;;;3.45;;
73382;SDS011;61600;48.126;11.542;2023-03-17T07:38:21;5.78;;;3.08;;
73382;SDS011;61600;48.126;11.542;2023-03-17T07:40:47;9.75;;;4.15;;
73382;SDS011;61600;48.126;11.542;2023-03-17T07:43:13;9.68;;;3.28;;
73382;SDS011;61600;48.126;11.542;2023-03-17T07:45:41;6.10;;;3.10;;
73382;SDS011;61600;48.126;11.542;2023-03-17T07:48:09;10.20;;;2.88;;
73382;SDS011;61600;48.126;11.542;2023-03-17T07:50:35;9.90;;;3.53;;
73382;SDS011;61600;48.126;11.542;2023-03-17T07:53:02;6.95;;;3.13;;
73382;SDS011;61600;48.126;11.542;2023-03-17T07:55:29;10.13;;;3.28;;
73382;SDS011;61600;48.126;11.542;2023-03-17T07:57:56;8.50;;;3.20;;
73382;SDS011;61600;48.126;11.542;2023-03-17T08:00:23;7.43;;;3.75;;
73382;SDS011;61600;48.126;11.542;2023-03-17T08:02:49;6.80;;;3.42;;
73382;SDS011;61600;48.126;11.542;2023-03-17T08:05:16;14.15;;;3.55;;
73382;SDS011;61600;48.126;11.542;2023-03-17T08:07:42;12.13;;;4.05;;
73382;SDS011;61600;48.126;11.542;2023-03-17T08:10:08;9.07;;;3.58;;
73382;SDS011;61600;48.126;11.542;2023-03-17T08:12:37;7.22;;;3.30;;
73382;SDS011;61600;48.126;11.542;2023-03-17T08:15:03;6.50;;;3.28;;
73382;SDS011;61600;48.126;11.542;2023-03-17T08:17:30;8.65;;;3.60;;
73382;SDS011;61600;48.126;11.542;2023-03-17T08:19:59;8.23;;;3.78;;
73382;SDS011;61600;48.126;11.542;2023-03-17T08:22:25;7.22;;;3.30;;
73382;SDS011;61600;48.126;11.542;2023-03-17T08:24:52;6.32;;;2.85;;
73382;SDS011;61600;48.126;11.542;2023-03-17T08:27:18;9.65;;;3.20;;
73382;SDS011;61600;48.126;11.542;2023-03-17T08:29:45;8.80;;;3.13;;
73382;SDS011;61600;48.126;11.542;2023-03-17T08:32:11;13.00;;;3.25;;
73382;SDS011;61600;48.126;11.542;2023-03-17T08:34:37;9.27;;;3.03;;
73382;SDS011;61600;48.126;11.542;2023-03-17T08:37:03;4.53;;;2.60;;
73382;SDS011;61600;48.126;11.542;2023-03-17T08:39:29;8.88;;;2.47;;
73382;SDS011;61600;48.126;11.542;2023-03-17T08:41:56;6.35;;;2.63;;
73382;SDS011;61600;48.126;11.542;2023-03-17T08:44:22;6.25;;;2.45;;
73382;SDS011;61600;48.126;11.542;2023-03-17T08:46:48;6.13;;;2.90;;
73382;SDS011;61600;48.126;11.542;2023-03-17T08:49:14;7.53;;;3.13;;
73382;SDS011;61600;48.126;11.542;2023-03-17T08:51:40;7.05;;;3.38;;
73382;SDS011;61600;48.126;11.542;2023-03-17T08:54:07;6.78;;;3.35;;
73382;SDS011;61600;48.126;11.542;2023-03-17T08:56:33;5.55;;;2.63;;
73382;SDS011;61600;48.126;11.542;2023-03-17T08:58:59;6.13;;;2.88;;
73382;SDS011;61600;48.126;11.542;2023-03-17T09:01:25;7.72;;;3.20;;
73382;SDS011;61600;48.126;11.542;2023-03-17T09:03:52;22.75;;;9.63;;
73382;SDS011;61600;48.126;11.542;2023-03-17T09:06:22;21.45;;;9.02;;
73382;SDS011;61600;48.126;11.542;2023-03-17T09:08:48;9.35;;;3.17;;
73382;SDS011;61600;48.126;11.542;2023-03-17T09:11:21;20.05;;;5.22;;
73382;SDS011;61600;48.126;11.542;2023-03-17T09:13:52;18.08;;;5.88;;
73382;SDS011;61600;48.126;11.542;2023-03-17T09:16:20;8.10;;;4.00;;
73382;SDS011;61600;48.126;11.542;2023-03-17T09:18:47;12.15;;;3.67;;
73382;SDS011;61600;48.126;11.542;2023-03-17T09:21:13;11.70;;;3.30;;
73382;SDS011;61600;48.126;11.542;2023-03-17T09:23:39;14.73;;;4.75;;
73382;SDS011;61600;48.126;11.542;2023-03-17T09:26:05;8.30;;;3.03;;
73382;SDS011;61600;48.126;11.542;2023-03-17T09:28:32;7.65;;;2.22;;
73382;SDS011;61600;48.126;11.542;2023-03-17T09:30:58;7.97;;;2.75;;
73382;SDS011;61600;48.126;11.542;2023-03-17T09:33:29;4.32;;;2.28;;
73382;SDS011;61600;48.126;11.542;2023-03-17T09:35:55;6.20;;;2.90;;
73382;SDS011;61600;48.126;11.542;2023-03-17T09:38:22;11.32;;;2.72;;
73382;SDS011;61600;48.126;11.542;2023-03-17T09:40:52;7.97;;;2.58;;
73382;SDS011;61600;48.126;11.542;2023-03-17T09:51:53;4.00;;;2.15;;
73382;SDS011;61600;48.126;11.542;2023-03-17T09:54:28;6.20;;;1.92;;
73382;SDS011;61600;48.126;11.542;2023-03-17T09:56:59;5.45;;;1.98;;
73382;SDS011;61600;48.126;11.542;2023-03-17T09:59:31;4.03;;;1.70;;
73382;SDS011;61600;48.126;11.542;2023-03-17T10:01:59;6.47;;;2.63;;
73382;SDS011;61600;48.126;11.542;2023-03-17T10:04:25;4.90;;;1.95;;
73382;SDS011;61600;48.126;11.542;2023-03-17T10:06:56;7.05;;;1.95;;
73382;SDS011;61600;48.126;11.542;2023-03-17T10:15:08;3.97;;;2.35;;
73382;SDS011;61600;48.126;11.542;2023-03-17T10:17:42;3.00;;;1.80;;
73382;SDS011;61600;48.126;11.542;2023-03-17T10:20:17;4.97;;;1.90;;
73382;SDS011;61600;48.126;11.542;2023-03-17T10:22:48;4.25;;;1.25;;
73382;SDS011;61600;48.126;11.542;2023-03-17T10:25:19;3.25;;;1.77;;
73382;SDS011;61600;48.126;11.542;2023-03-17T10:27:48;11.38;;;2.17;;
73382;SDS011;61600;48.126;11.542;2023-03-17T10:30:38;5.45;;;1.50;;
73382;SDS011;61600;48.126;11.542;2023-03-17T10:33:05;4.03;;;1.50;;
73382;SDS011;61600;48.126;11.542;2023-03-17T10:35:32;3.05;;;1.60;;
73382;SDS011;61600;48.126;11.542;2023-03-17T10:38:15;5.13;;;1.50;;
73382;SDS011;61600;48.126;11.542;2023-03-17T10:40:44;3.03;;;1.30;;
73382;SDS011;61600;48.126;11.542;2023-03-17T10:43:17;5.95;;;1.50;;
73382;SDS011;61600;48.126;11.542;2023-03-17T10:45:53;4.95;;;1.20;;
73382;SDS011;61600;48.126;11.542;2023-03-17T10:48:28;5.28;;;2.10;;
73382;SDS011;61600;48.126;11.542;2023-03-17T10:50:56;8.80;;;2.65;;
73382;SDS011;61600;48.126;11.542;2023-03-17T10:53:24;4.35;;;1.30;;
73382;SDS011;61600;48.126;11.542;2023-03-17T10:55:58;4.10;;;1.52;;
73382;SDS011;61600;48.126;11.542;2023-03-17T10:58:36;4.45;;;1.60;;
73382;SDS011;61600;48.126;11.542;2023-03-17T11:01:16;3.63;;;1.30;;
73382;SDS011;61600;48.126;11.542;2023-03-17T11:03:54;2.85;;;1.20;;
73382;SDS011;61600;48.126;11.542;2023-03-17T11:06:30;3.53;;;1.17;;
73382;SDS011;61600;48.126;11.542;2023-03-17T11:09:07;4.45;;;1.40;;
73382;SDS011;61600;48.126;11.542;2023-03-17T11:12:02;6.78;;;1.77;;
73382;SDS011;61600;48.126;11.542;2023-03-17T11:14:52;9.35;;;4.32;;
73382;SDS011;61600;48.126;11.542;2023-03-17T11:18:10;5.10;;;1.40;;
73382;SDS011;61600;48.126;11.542;2023-03-17T11:27:01;3.25;;;1.50;;
73382;SDS011;61600;48.126;11.542;2023-03-17T11:54:34;5.55;;;1.60;;
73382;SDS011;61600;48.126;11.542;2023-03-17T11:57:18;6.57;;;2.13;;
73382;SDS011;61600;48.126;11.542;2023-03-17T12:03:15;6.70;;;1.40;;
73382;SDS011;61600;48.126;11.542;2023-03-17T12:05:48;5.55;;;1.40;;
73382;SDS011;61600;48.126;11.542;2023-03-17T12:08:26;3.60;;;1.80;;
73382;SDS011;61600;48.126;11.542;2023-03-17T12:10:55;5.45;;;1.80;;
73382;SDS011;61600;48.126;11.542;2023-03-17T12:13:48;5.03;;;1.80;;
73382;SDS011;61600;48.126;11.542;2023-03-17T12:16:32;4.07;;;1.65;;
73382;SDS011;61600;48.126;11.542;2023-03-17T12:19:18;4.95;;;1.42;;
73382;SDS011;61600;48.126;11.542;2023-03-17T12:22:22;6.80;;;1.90;;
73382;SDS011;61600;48.126;11.542;2023-03-17T12:30:36;3.95;;;1.90;;
73382;SDS011;61600;48.126;11.542;2023-03-17T12:35:46;3.75;;;1.65;;
73382;SDS011;61600;48.126;11.542;2023-03-17T12:38:15;4.68;;;1.70;;
73382;SDS011;61600;48.126;11.542;2023-03-17T12:43:45;5.20;;;2.30;;
73382;SDS011;61600;48.126;11.542;2023-03-17T12:51:57;4.85;;;1.80;;
73382;SDS011;61600;48.126;11.542;2023-03-17T12:54:31;3.05;;;1.58;;
73382;SDS011;61600;48.126;11.542;2023-03-17T12:59:45;6.57;;;3.33;;
73382;SDS011;61600;48.126;11.542;2023-03-17T13:04:55;4.38;;;1.92;;
73382;SDS011;61600;48.126;11.542;2023-03-17T13:07:26;3.08;;;2.08;;
73382;SDS011;61600;48.126;11.542;2023-03-17T13:17:45;4.35;;;2.17;;
73382;SDS011;61600;48.126;11.542;2023-03-17T13:20:15;8.68;;;2.25;;
73382;SDS011;61600;48.126;11.542;2023-03-17T13:35:46;6.75;;;3.50;;
73382;SDS011;61600;48.126;11.542;2023-03-17T13:47:08;5.65;;;2.63;;
73382;SDS011;61600;48.126;11.542;2023-03-17T13:49:52;4.28;;;2.53;;
73382;SDS011;61600;48.126;11.542;2023-03-17T13:52:29;7.07;;;2.58;;
73382;SDS011;61600;48.126;11.542;2023-03-17T13:55:04;4.40;;;2.72;;
73382;SDS011;61600;48.126;11.542;2023-03-17T13:58:14;7.00;;;2.72;;
73382;SDS011;61600;48.126;11.542;2023-03-17T14:03:29;8.38;;;3.05;;
73382;SDS011;61600;48.126;11.542;2023-03-17T14:06:01;4.78;;;2.88;;
73382;SDS011;61600;48.126;11.542;2023-03-17T14:08:37;4.53;;;2.70;;
73382;SDS011;61600;48.126;11.542;2023-03-17T14:11:26;6.32;;;3.15;;
73382;SDS011;61600;48.126;11.542;2023-03-17T14:14:06;5.15;;;2.60;;
73382;SDS011;61600;48.126;11.542;2023-03-17T14:17:03;4.85;;;2.65;;
73382;SDS011;61600;48.126;11.542;2023-03-17T14:19:35;5.43;;;2.80;;
73382;SDS011;61600;48.126;11.542;2023-03-17T14:22:24;7.20;;;4.05;;
73382;SDS011;61600;48.126;11.542;2023-03-17T14:24:51;4.25;;;2.45;;
73382;SDS011;61600;48.126;11.542;2023-03-17T14:27:19;8.13;;;2.72;;
73382;SDS011;61600;48.126;11.542;2023-03-17T14:29:46;13.27;;;7.15;;
73382;SDS011;61600;48.126;11.542;2023-03-17T14:32:14;7.63;;;3.28;;
73382;SDS011;61600;48.126;11.542;2023-03-17T14:34:43;9.77;;;3.10;;
73382;SDS011;61600;48.126;11.542;2023-03-17T14:37:09;6.35;;;3.63;;
73382;SDS011;61600;48.126;11.542;2023-03-17T14:39:42;6.07;;;3.15;;
73382;SDS011;61600;48.126;11.542;2023-03-17T14:42:18;8.40;;;3.00;;
73382;SDS011;61600;48.126;11.542;2023-03-17T14:44:57;9.65;;;3.00;;
73382;SDS011;61600;48.126;11.542;2023-03-17T14:47:25;7.07;;;3.03;;
73382;SDS011;61600;48.126;11.542;2023-03-17T14:49:51;4.82;;;2.55;;
73382;SDS011;61600;48.126;11.542;2023-03-17T14:52:25;7.55;;;3.20;;
73382;SDS011;61600;48.126;11.542;2023-03-17T14:54:57;9.32;;;3.03;;
73382;SDS011;61600;48.126;11.542;2023-03-17T14:57:28;4.30;;;2.55;;
73382;SDS011;61600;48.126;11.542;2023-03-17T15:00:02;7.32;;;2.80;;
73382;SDS011;61600;48.126;11.542;2023-03-17T15:02:57;6.78;;;2.88;;
73382;SDS011;61600;48.126;11.542;2023-03-17T15:05:37;6.15;;;2.47;;
73382;SDS011;61600;48.126;11.542;2023-03-17T15:08:27;5.30;;;3.10;;
73382;SDS011;61600;48.126;11.542;2023-03-17T15:10:52;5.28;;;2.47;;
73382;SDS011;61600;48.126;11.542;2023-03-17T15:13:26;5.20;;;3.13;;
73382;SDS011;61600;48.126;11.542;2023-03-17T15:15:56;5.20;;;2.47;;
73382;SDS011;61600;48.126;11.542;2023-03-17T15:18:23;8.68;;;2.78;;
73382;SDS011;61600;48.126;11.542;2023-03-17T15:20:49;6.03;;;2.70;;
73382;SDS011;61600;48.126;11.542;2023-03-17T15:25:48;9.45;;;2.60;;
73382;SDS011;61600;48.126;11.542;2023-03-17T15:28:25;4.38;;;2.50;;
73382;SDS011;61600;48.126;11.542;2023-03-17T15:30:56;5.38;;;2.65;;
73382;SDS011;61600;48.126;11.542;2023-03-17T15:33:34;6.15;;;2.35;;
73382;SDS011;61600;48.126;11.542;2023-03-17T15:36:02;7.65;;;3.17;;
73382;SDS011;61600;48.126;11.542;2023-03-17T15:38:28;8.43;;;2.90;;
73382;SDS011;61600;48.126;11.542;2023-03-17T15:40:54;5.82;;;2.70;;
73382;SDS011;61600;48.126;11.542;2023-03-17T15:43:20;6.85;;;3.63;;
73382;SDS011;61600;48.126;11.542;2023-03-17T15:46:06;5.68;;;3.42;;
73382;SDS011;61600;48.126;11.542;2023-03-17T15:48:39;6.30;;;2.90;;
73382;SDS011;61600;48.126;11.542;2023-03-17T15:51:05;5.72;;;3.05;;
73382;SDS011;61600;48.126;11.542;2023-03-17T15:53:31;5.00;;;2.70;;
73382;SDS011;61600;48.126;11.542;2023-03-17T15:55:57;7.43;;;2.88;;
73382;SDS011;61600;48.126;11.542;2023-03-17T15:58:23;4.97;;;2.72;;
73382;SDS011;61600;48.126;11.542;2023-03-17T16:00:51;5.47;;;3.00;;
73382;SDS011;61600;48.126;11.542;2023-03-17T16:03:25;4.28;;;2.72;;
73382;SDS011;61600;48.126;11.542;2023-03-17T16:05:54;5.03;;;2.63;;
73382;SDS011;61600;48.126;11.542;2023-03-17T16:08:20;5.68;;;2.53;;
73382;SDS011;61600;48.126;11.542;2023-03-17T16:10:46;7.45;;;2.60;;
73382;SDS011;61600;48.126;11.542;2023-03-17T16:13:13;5.80;;;2.88;;
73382;SDS011;61600;48.126;11.542;2023-03-17T16:15:42;5.38;;;2.45;;
73382;SDS011;61600;48.126;11.542;2023-03-17T16:18:18;4.65;;;2.25;;
73382;SDS011;61600;48.126;11.542;2023-03-17T16:20:55;4.85;;;2.33;;
73382;SDS011;61600;48.126;11.542;2023-03-17T16:23:23;6.82;;;3.22;;
73382;SDS011;61600;48.126;11.542;2023-03-17T16:25:52;8.18;;;2.78;;
73382;SDS011;61600;48.126;11.542;2023-03-17T16:30:45;4.97;;;2.40;;
73382;SDS011;61600;48.126;11.542;2023-03-17T16:33:16;6.03;;;2.50;;
73382;SDS011;61600;48.126;11.542;2023-03-17T16:35:45;5.25;;;2.22;;
73382;SDS011;61600;48.126;11.542;2023-03-17T16:38:14;5.45;;;2.33;;
73382;SDS011;61600;48.126;11.542;2023-03-17T16:40:49;8.98;;;3.17;;
73382;SDS011;61600;48.126;11.542;2023-03-17T16:45:50;6.85;;;2.45;;
73382;SDS011;61600;48.126;11.542;2023-03-17T16:48:21;7.47;;;2.53;;
73382;SDS011;61600;48.126;11.542;2023-03-17T16:50:47;4.80;;;2.70;;
73382;SDS011;61600;48.126;11.542;2023-03-17T16:53:13;6.03;;;2.90;;